»·PEaware :: N700DK KPDX-KSLE

N700DK :: KPDX-KSLE

FLIGHT INFORMATION

Flight Status: Arrived
Operator: Privately registered:
United States
More flights under this callsign
Pilot: Brendan O. (14500)
Aircraft: CESSNA 340
(C340)
More flights by this aircraft type
Origin: KPDX Portland Intl
United States
Destination: KSLE McNary
United States
More flights between these airports :: More routes between these airports
Route: PTLD1 PTL UBG
File this flight plan on PilotEdge
Remarks:
Altitude:
(Current/Filed)
6,000ft
Speed:
(Current/Filed)
185kts
Departed: 21-Feb-19 10:16 AM
Arrived: 21-Feb-19 10:41 AM
Distance/Time
Traveled:
44nm/0:25
Distance/Time
To Go:
Arrived

Flight Plot

Page will automatically refresh every two minutes.


Map Options




Map Legend


Flown Route
Filed Route
Departure Airport
Arrival Airport
Navaid (VOR, NDB)
Fix

Horizontal Profiles

Position Reports

Time Latitude Longitude Heading Altitude Ground
Speed
21-Feb-19 09:50 45.587226 -122.582956 211 20ft 0kts
21-Feb-19 09:51 45.587226 -122.582956 211 20ft 0kts
21-Feb-19 09:52 45.587226 -122.582956 211 20ft 0kts
21-Feb-19 09:53 45.587226 -122.582956 212 20ft 0kts
21-Feb-19 09:54 45.587226 -122.582955 212 20ft 0kts
21-Feb-19 09:55 45.587226 -122.582956 212 20ft 0kts
21-Feb-19 09:56 45.587226 -122.582956 212 20ft 0kts
21-Feb-19 09:57 45.587226 -122.582956 212 20ft 0kts
21-Feb-19 09:58 45.587226 -122.582956 212 20ft 0kts
21-Feb-19 09:59 45.587226 -122.582956 212 20ft 0kts
21-Feb-19 10:00 45.587226 -122.582956 212 20ft 0kts
21-Feb-19 10:01 45.587226 -122.582956 212 20ft 0kts
21-Feb-19 10:02 45.587226 -122.582956 212 20ft 0kts
21-Feb-19 10:03 45.587133 -122.582903 87 20ft 6kts
21-Feb-19 10:04 45.587304 -122.582658 31 20ft 0kts
21-Feb-19 10:05 45.587877 -122.583338 302 20ft 13kts
21-Feb-19 10:06 45.588662 -122.585529 298 20ft 0kts
21-Feb-19 10:07 45.588662 -122.585528 298 20ft 0kts
21-Feb-19 10:08 45.588662 -122.585529 299 20ft 0kts
21-Feb-19 10:09 45.590537 -122.590156 301 20ft 23kts
21-Feb-19 10:10 45.593648 -122.598122 301 23ft 21kts
21-Feb-19 10:11 45.594810 -122.600977 303 23ft 12kts
21-Feb-19 10:12 45.595624 -122.600582 26 23ft 0kts
21-Feb-19 10:13 45.595624 -122.600582 26 23ft 0kts
21-Feb-19 10:14 45.596283 -122.599457 118 23ft 6kts
21-Feb-19 10:15 45.589323 -122.583112 115 116ft 114kts
21-Feb-19 10:16 45.568634 -122.540215 121 1793ft 145kts
21-Feb-19 10:17 45.541368 -122.498939 168 3116ft 177kts
21-Feb-19 10:18 45.510237 -122.539295 248 4128ft 180kts
21-Feb-19 10:19 45.487862 -122.598716 242 5389ft 178kts
21-Feb-19 10:20 45.473378 -122.648173 248 5893ft 194kts
21-Feb-19 10:21 45.454593 -122.702483 247 6270ft 191kts
21-Feb-19 10:22 45.433980 -122.754167 244 6071ft 203kts
21-Feb-19 10:23 45.412604 -122.807002 246 6034ft 204kts
21-Feb-19 10:24 45.393034 -122.859090 249 6004ft 204kts
21-Feb-19 10:25 45.377065 -122.913642 251 5899ft 203kts
21-Feb-19 10:26 45.360755 -122.964748 246 5778ft 200kts
21-Feb-19 10:27 45.329128 -122.988358 176 6100ft 193kts
21-Feb-19 10:28 45.289271 -122.985282 178 5900ft 200kts
21-Feb-19 10:29 45.245342 -122.986807 180 5826ft 200kts
21-Feb-19 10:30 45.199541 -123.028170 239 6019ft 172kts
21-Feb-19 10:31 45.180390 -123.074639 253 5538ft 182kts
21-Feb-19 10:32 45.165080 -123.118630 247 4797ft 190kts
21-Feb-19 10:33 45.142887 -123.173720 248 3218ft 195kts
21-Feb-19 10:34 45.090249 -123.182222 124 2429ft 165kts
21-Feb-19 10:35 45.063469 -123.136648 130 2365ft 132kts
21-Feb-19 10:36 45.034164 -123.103718 148 1968ft 116kts
21-Feb-19 10:37 45.007299 -123.079764 138 2377ft 122kts
21-Feb-19 10:38 44.963806 -123.044614 141 1434ft 139kts
21-Feb-19 10:39 44.909223 -123.000793 138 207ft 59kts
21-Feb-19 10:40 44.906118 -122.998595 146 210ft 10kts
21-Feb-19 10:41 44.921402 -123.012562 314 657ft 109kts
21-Feb-19 10:42 44.905466 -123.029843 149 968ft 151kts
21-Feb-19 10:43 44.885737 -123.011215 137 1220ft 106kts
21-Feb-19 10:44 44.873174 -122.985671 52 943ft 81kts
21-Feb-19 10:45 44.892241 -122.987602 337 596ft 74kts
21-Feb-19 10:46 44.908774 -123.000789 335 208ft 56kts
21-Feb-19 10:47 44.930296 -123.020737 321 1017ft 130kts
21-Feb-19 10:48 44.902307 -123.034860 148 1313ft 169kts
21-Feb-19 10:49 44.866440 -123.004453 111 1124ft 114kts
21-Feb-19 10:50 44.876253 -122.979212 6 685ft 77kts
21-Feb-19 10:51 44.894885 -122.989621 337 382ft 77kts
21-Feb-19 10:52 44.909822 -123.001549 333 204ft 33kts
21-Feb-19 10:54 44.913376 -123.006236 316 198ft 15kts
21-Feb-19 10:55 44.913091 -123.007890 137 198ft 0kts

Navigation Log

Ident Type
Flight plan parsing failed, navigation log unavailable